sensor_id;sensor_type;location;lat;lon;timestamp;P1;durP1;ratioP1;P2;durP2;ratioP2
19905;SDS011;10115;50.906;4.438;2022-08-11T00:00:19;3.07;;;2.77;;
19905;SDS011;10115;50.906;4.438;2022-08-11T00:02:46;3.07;;;2.80;;
19905;SDS011;10115;50.906;4.438;2022-08-11T00:05:16;3.40;;;2.70;;
19905;SDS011;10115;50.906;4.438;2022-08-11T00:07:51;2.67;;;2.47;;
19905;SDS011;10115;50.906;4.438;2022-08-11T00:10:22;2.77;;;2.57;;
19905;SDS011;10115;50.906;4.438;2022-08-11T00:12:51;2.73;;;2.53;;
19905;SDS011;10115;50.906;4.438;2022-08-11T00:15:21;2.83;;;2.60;;
19905;SDS011;10115;50.906;4.438;2022-08-11T00:17:56;2.80;;;2.60;;
19905;SDS011;10115;50.906;4.438;2022-08-11T00:20:27;2.87;;;2.67;;
19905;SDS011;10115;50.906;4.438;2022-08-11T00:23:00;2.30;;;2.20;;
19905;SDS011;10115;50.906;4.438;2022-08-11T00:25:28;2.77;;;2.57;;
19905;SDS011;10115;50.906;4.438;2022-08-11T00:27:54;2.90;;;2.70;;
19905;SDS011;10115;50.906;4.438;2022-08-11T00:30:20;8.07;;;3.03;;
19905;SDS011;10115;50.906;4.438;2022-08-11T00:32:52;3.60;;;3.30;;
19905;SDS011;10115;50.906;4.438;2022-08-11T00:35:22;2.83;;;2.53;;
19905;SDS011;10115;50.906;4.438;2022-08-11T00:37:51;3.27;;;2.97;;
19905;SDS011;10115;50.906;4.438;2022-08-11T00:40:26;2.47;;;2.37;;
19905;SDS011;10115;50.906;4.438;2022-08-11T00:43:38;2.50;;;2.30;;
19905;SDS011;10115;50.906;4.438;2022-08-11T00:49:08;2.93;;;2.63;;
19905;SDS011;10115;50.906;4.438;2022-08-11T00:51:43;2.70;;;2.50;;
19905;SDS011;10115;50.906;4.438;2022-08-11T00:59:31;2.70;;;2.50;;
19905;SDS011;10115;50.906;4.438;2022-08-11T01:02:25;3.60;;;3.30;;
19905;SDS011;10115;50.906;4.438;2022-08-11T01:22:18;4.77;;;3.13;;
19905;SDS011;10115;50.906;4.438;2022-08-11T01:28:36;3.70;;;3.00;;
19905;SDS011;10115;50.906;4.438;2022-08-11T01:54:32;12.27;;;3.80;;
19905;SDS011;10115;50.906;4.438;2022-08-11T02:00:09;3.80;;;2.83;;
19905;SDS011;10115;50.906;4.438;2022-08-11T02:11:04;6.03;;;3.23;;
19905;SDS011;10115;50.906;4.438;2022-08-11T02:17:14;3.17;;;2.97;;
19905;SDS011;10115;50.906;4.438;2022-08-11T02:19:51;3.43;;;3.17;;
19905;SDS011;10115;50.906;4.438;2022-08-11T02:22:57;3.63;;;3.30;;
19905;SDS011;10115;50.906;4.438;2022-08-11T02:42:25;4.73;;;3.63;;
19905;SDS011;10115;50.906;4.438;2022-08-11T02:45:13;5.83;;;4.27;;
19905;SDS011;10115;50.906;4.438;2022-08-11T02:57:03;3.50;;;3.20;;
19905;SDS011;10115;50.906;4.438;2022-08-11T03:05:23;4.13;;;3.20;;
19905;SDS011;10115;50.906;4.438;2022-08-11T03:14:45;4.43;;;3.37;;
19905;SDS011;10115;50.906;4.438;2022-08-11T03:23:16;3.40;;;3.20;;
19905;SDS011;10115;50.906;4.438;2022-08-11T03:31:19;5.17;;;3.47;;
19905;SDS011;10115;50.906;4.438;2022-08-11T03:33:54;4.10;;;3.63;;
19905;SDS011;10115;50.906;4.438;2022-08-11T03:42:42;3.67;;;3.37;;
19905;SDS011;10115;50.906;4.438;2022-08-11T03:45:29;3.67;;;3.47;;
19905;SDS011;10115;50.906;4.438;2022-08-11T03:51:43;3.43;;;3.20;;
19905;SDS011;10115;50.906;4.438;2022-08-11T03:54:49;4.67;;;3.33;;
19905;SDS011;10115;50.906;4.438;2022-08-11T04:00:35;4.27;;;3.87;;
19905;SDS011;10115;50.906;4.438;2022-08-11T04:11:40;4.20;;;3.50;;
19905;SDS011;10115;50.906;4.438;2022-08-11T04:26:34;3.83;;;3.53;;
19905;SDS011;10115;50.906;4.438;2022-08-11T04:32:17;4.40;;;4.10;;
19905;SDS011;10115;50.906;4.438;2022-08-11T04:56:47;5.90;;;4.60;;
19905;SDS011;10115;50.906;4.438;2022-08-11T05:11:33;4.37;;;4.07;;
19905;SDS011;10115;50.906;4.438;2022-08-11T05:20:12;4.53;;;4.17;;
19905;SDS011;10115;50.906;4.438;2022-08-11T05:22:57;4.90;;;4.50;;
19905;SDS011;10115;50.906;4.438;2022-08-11T05:25:47;4.50;;;4.20;;
19905;SDS011;10115;50.906;4.438;2022-08-11T05:28:45;11.20;;;4.80;;
19905;SDS011;10115;50.906;4.438;2022-08-11T05:31:35;5.10;;;4.33;;
19905;SDS011;10115;50.906;4.438;2022-08-11T05:34:30;4.80;;;4.27;;
19905;SDS011;10115;50.906;4.438;2022-08-11T05:39:48;5.33;;;4.40;;
19905;SDS011;10115;50.906;4.438;2022-08-11T05:42:37;15.17;;;5.90;;
19905;SDS011;10115;50.906;4.438;2022-08-11T05:45:26;5.20;;;4.80;;
19905;SDS011;10115;50.906;4.438;2022-08-11T05:48:11;4.83;;;4.43;;
19905;SDS011;10115;50.906;4.438;2022-08-11T05:50:57;5.63;;;4.60;;
19905;SDS011;10115;50.906;4.438;2022-08-11T05:53:49;6.23;;;5.17;;
19905;SDS011;10115;50.906;4.438;2022-08-11T05:56:43;6.30;;;5.10;;
19905;SDS011;10115;50.906;4.438;2022-08-11T05:59:15;5.83;;;4.60;;
19905;SDS011;10115;50.906;4.438;2022-08-11T06:01:42;5.60;;;4.70;;
19905;SDS011;10115;50.906;4.438;2022-08-11T06:04:11;5.20;;;4.70;;
19905;SDS011;10115;50.906;4.438;2022-08-11T06:09:21;5.90;;;5.10;;
19905;SDS011;10115;50.906;4.438;2022-08-11T06:11:59;5.63;;;5.13;;
19905;SDS011;10115;50.906;4.438;2022-08-11T06:14:27;5.30;;;4.80;;
19905;SDS011;10115;50.906;4.438;2022-08-11T06:16:55;6.50;;;5.00;;
19905;SDS011;10115;50.906;4.438;2022-08-11T06:19:35;9.87;;;5.17;;
19905;SDS011;10115;50.906;4.438;2022-08-11T06:22:04;7.37;;;4.67;;
19905;SDS011;10115;50.906;4.438;2022-08-11T06:24:34;7.77;;;4.93;;
19905;SDS011;10115;50.906;4.438;2022-08-11T06:27:02;6.10;;;4.77;;
19905;SDS011;10115;50.906;4.438;2022-08-11T06:29:30;6.10;;;5.37;;
19905;SDS011;10115;50.906;4.438;2022-08-11T06:31:58;6.30;;;4.10;;
19905;SDS011;10115;50.906;4.438;2022-08-11T06:34:37;23.13;;;4.90;;
19905;SDS011;10115;50.906;4.438;2022-08-11T06:37:22;4.83;;;4.33;;
19905;SDS011;10115;50.906;4.438;2022-08-11T06:48:04;6.00;;;4.50;;
19905;SDS011;10115;50.906;4.438;2022-08-11T06:50:35;11.47;;;3.97;;
19905;SDS011;10115;50.906;4.438;2022-08-11T06:53:19;13.10;;;4.03;;
19905;SDS011;10115;50.906;4.438;2022-08-11T06:55:47;5.53;;;4.07;;
19905;SDS011;10115;50.906;4.438;2022-08-11T06:58:37;5.10;;;4.50;;
19905;SDS011;10115;50.906;4.438;2022-08-11T07:01:28;7.73;;;4.40;;
19905;SDS011;10115;50.906;4.438;2022-08-11T07:04:00;6.20;;;4.30;;
19905;SDS011;10115;50.906;4.438;2022-08-11T07:12:08;5.27;;;3.80;;
19905;SDS011;10115;50.906;4.438;2022-08-11T07:15:18;9.57;;;3.97;;
19905;SDS011;10115;50.906;4.438;2022-08-11T07:18:03;4.57;;;4.00;;
19905;SDS011;10115;50.906;4.438;2022-08-11T07:20:51;3.90;;;3.53;;
19905;SDS011;10115;50.906;4.438;2022-08-11T07:23:38;4.83;;;3.70;;
19905;SDS011;10115;50.906;4.438;2022-08-11T07:26:23;12.03;;;4.47;;
19905;SDS011;10115;50.906;4.438;2022-08-11T07:29:11;8.47;;;3.40;;
19905;SDS011;10115;50.906;4.438;2022-08-11T07:31:40;3.67;;;3.37;;
19905;SDS011;10115;50.906;4.438;2022-08-11T07:34:22;9.17;;;3.73;;
19905;SDS011;10115;50.906;4.438;2022-08-11T07:36:56;7.10;;;3.30;;
19905;SDS011;10115;50.906;4.438;2022-08-11T07:39:25;3.53;;;3.20;;
19905;SDS011;10115;50.906;4.438;2022-08-11T07:41:53;4.27;;;3.73;;
19905;SDS011;10115;50.906;4.438;2022-08-11T07:44:21;6.20;;;3.83;;
19905;SDS011;10115;50.906;4.438;2022-08-11T07:46:53;3.67;;;3.37;;
19905;SDS011;10115;50.906;4.438;2022-08-11T07:49:38;5.20;;;2.90;;
19905;SDS011;10115;50.906;4.438;2022-08-11T07:52:24;5.33;;;4.03;;
19905;SDS011;10115;50.906;4.438;2022-08-11T07:55:19;8.07;;;3.47;;
19905;SDS011;10115;50.906;4.438;2022-08-11T07:57:46;7.78;;;3.30;;
19905;SDS011;10115;50.906;4.438;2022-08-11T08:00:38;4.00;;;3.03;;
19905;SDS011;10115;50.906;4.438;2022-08-11T08:03:26;4.20;;;3.45;;
19905;SDS011;10115;50.906;4.438;2022-08-11T08:06:12;3.53;;;3.22;;
19905;SDS011;10115;50.906;4.438;2022-08-11T08:08:58;5.70;;;3.10;;
19905;SDS011;10115;50.906;4.438;2022-08-11T08:11:43;9.18;;;3.72;;
19905;SDS011;10115;50.906;4.438;2022-08-11T08:14:27;3.10;;;2.90;;
19905;SDS011;10115;50.906;4.438;2022-08-11T08:17:11;3.75;;;3.45;;
19905;SDS011;10115;50.906;4.438;2022-08-11T08:19:56;6.55;;;3.40;;
19905;SDS011;10115;50.906;4.438;2022-08-11T08:22:22;8.02;;;3.15;;
19905;SDS011;10115;50.906;4.438;2022-08-11T08:24:48;4.60;;;3.03;;
19905;SDS011;10115;50.906;4.438;2022-08-11T08:27:15;4.10;;;2.80;;
19905;SDS011;10115;50.906;4.438;2022-08-11T08:29:42;4.20;;;3.05;;
19905;SDS011;10115;50.906;4.438;2022-08-11T08:32:28;3.83;;;2.95;;
19905;SDS011;10115;50.906;4.438;2022-08-11T08:34:55;7.38;;;3.50;;
19905;SDS011;10115;50.906;4.438;2022-08-11T08:37:23;8.88;;;3.30;;
19905;SDS011;10115;50.906;4.438;2022-08-11T08:39:53;9.50;;;2.88;;
19905;SDS011;10115;50.906;4.438;2022-08-11T08:42:23;3.40;;;3.10;;
19905;SDS011;10115;50.906;4.438;2022-08-11T08:45:07;5.80;;;2.72;;
19905;SDS011;10115;50.906;4.438;2022-08-11T08:47:35;5.82;;;2.83;;
19905;SDS011;10115;50.906;4.438;2022-08-11T08:50:10;7.78;;;3.42;;
19905;SDS011;10115;50.906;4.438;2022-08-11T08:52:38;7.95;;;2.78;;
19905;SDS011;10115;50.906;4.438;2022-08-11T08:55:07;10.93;;;2.63;;
19905;SDS011;10115;50.906;4.438;2022-08-11T08:57:41;3.28;;;2.97;;
19905;SDS011;10115;50.906;4.438;2022-08-11T09:00:09;7.78;;;3.03;;
19905;SDS011;10115;50.906;4.438;2022-08-11T09:02:37;3.28;;;2.67;;
19905;SDS011;10115;50.906;4.438;2022-08-11T09:05:05;7.57;;;3.00;;
19905;SDS011;10115;50.906;4.438;2022-08-11T09:07:33;4.70;;;2.75;;
19905;SDS011;10115;50.906;4.438;2022-08-11T09:10:00;3.85;;;2.88;;
19905;SDS011;10115;50.906;4.438;2022-08-11T09:12:27;3.78;;;2.63;;
19905;SDS011;10115;50.906;4.438;2022-08-11T09:14:55;5.10;;;3.13;;
19905;SDS011;10115;50.906;4.438;2022-08-11T09:20:07;3.92;;;2.92;;
19905;SDS011;10115;50.906;4.438;2022-08-11T09:22:37;4.57;;;2.88;;
19905;SDS011;10115;50.906;4.438;2022-08-11T09:25:24;8.00;;;3.20;;
19905;SDS011;10115;50.906;4.438;2022-08-11T09:28:12;2.50;;;2.30;;
19905;SDS011;10115;50.906;4.438;2022-08-11T09:30:40;3.42;;;2.35;;
19905;SDS011;10115;50.906;4.438;2022-08-11T09:33:08;6.55;;;2.67;;
19905;SDS011;10115;50.906;4.438;2022-08-11T09:35:36;2.92;;;2.72;;
19905;SDS011;10115;50.906;4.438;2022-08-11T09:38:04;6.60;;;2.78;;
19905;SDS011;10115;50.906;4.438;2022-08-11T09:40:50;6.50;;;3.05;;
19905;SDS011;10115;50.906;4.438;2022-08-11T09:43:17;3.08;;;2.60;;
19905;SDS011;10115;50.906;4.438;2022-08-11T09:46:03;8.15;;;2.70;;
19905;SDS011;10115;50.906;4.438;2022-08-11T09:48:30;4.47;;;2.85;;
19905;SDS011;10115;50.906;4.438;2022-08-11T09:51:01;9.32;;;2.63;;
19905;SDS011;10115;50.906;4.438;2022-08-11T09:53:32;3.08;;;2.78;;
19905;SDS011;10115;50.906;4.438;2022-08-11T09:56:00;2.58;;;2.38;;
19905;SDS011;10115;50.906;4.438;2022-08-11T09:58:50;3.05;;;2.63;;
19905;SDS011;10115;50.906;4.438;2022-08-11T10:01:16;4.07;;;3.17;;
19905;SDS011;10115;50.906;4.438;2022-08-11T10:03:52;3.08;;;2.78;;
19905;SDS011;10115;50.906;4.438;2022-08-11T10:06:21;3.45;;;3.15;;
19905;SDS011;10115;50.906;4.438;2022-08-11T10:09:07;3.60;;;3.03;;
19905;SDS011;10115;50.906;4.438;2022-08-11T10:11:32;3.80;;;2.90;;
19905;SDS011;10115;50.906;4.438;2022-08-11T10:14:00;3.00;;;2.65;;
19905;SDS011;10115;50.906;4.438;2022-08-11T10:17:03;3.28;;;2.97;;
19905;SDS011;10115;50.906;4.438;2022-08-11T10:19:32;4.80;;;2.90;;
19905;SDS011;10115;50.906;4.438;2022-08-11T10:22:01;2.67;;;2.47;;
19905;SDS011;10115;50.906;4.438;2022-08-11T10:24:52;6.30;;;2.75;;
19905;SDS011;10115;50.906;4.438;2022-08-11T10:27:45;3.90;;;3.00;;
19905;SDS011;10115;50.906;4.438;2022-08-11T10:30:23;4.63;;;3.00;;
19905;SDS011;10115;50.906;4.438;2022-08-11T10:33:10;3.40;;;2.80;;
19905;SDS011;10115;50.906;4.438;2022-08-11T10:35:56;6.38;;;3.13;;
19905;SDS011;10115;50.906;4.438;2022-08-11T10:38:23;2.90;;;2.58;;
19905;SDS011;10115;50.906;4.438;2022-08-11T10:40:50;6.30;;;2.78;;
19905;SDS011;10115;50.906;4.438;2022-08-11T10:43:37;3.10;;;2.80;;
19905;SDS011;10115;50.906;4.438;2022-08-11T10:46:06;5.97;;;2.45;;
19905;SDS011;10115;50.906;4.438;2022-08-11T10:48:52;3.53;;;2.88;;
19905;SDS011;10115;50.906;4.438;2022-08-11T10:51:20;3.03;;;2.65;;
19905;SDS011;10115;50.906;4.438;2022-08-11T10:53:47;6.05;;;2.60;;
19905;SDS011;10115;50.906;4.438;2022-08-11T10:56:35;3.13;;;2.80;;
19905;SDS011;10115;50.906;4.438;2022-08-11T10:59:21;3.83;;;2.72;;
19905;SDS011;10115;50.906;4.438;2022-08-11T11:01:51;3.78;;;2.95;;
19905;SDS011;10115;50.906;4.438;2022-08-11T11:04:28;2.60;;;2.40;;
19905;SDS011;10115;50.906;4.438;2022-08-11T11:07:07;2.95;;;2.75;;
19905;SDS011;10115;50.906;4.438;2022-08-11T11:09:57;9.05;;;2.40;;
19905;SDS011;10115;50.906;4.438;2022-08-11T11:12:43;4.05;;;2.75;;
19905;SDS011;10115;50.906;4.438;2022-08-11T11:15:31;3.08;;;2.72;;
19905;SDS011;10115;50.906;4.438;2022-08-11T11:18:26;6.05;;;2.67;;
19905;SDS011;10115;50.906;4.438;2022-08-11T11:20:55;7.57;;;3.65;;
19905;SDS011;10115;50.906;4.438;2022-08-11T11:23:27;7.07;;;2.10;;
19905;SDS011;10115;50.906;4.438;2022-08-11T11:34:37;3.92;;;2.67;;
19905;SDS011;10115;50.906;4.438;2022-08-11T11:37:07;3.60;;;2.47;;
19905;SDS011;10115;50.906;4.438;2022-08-11T11:39:37;5.85;;;2.28;;
19905;SDS011;10115;50.906;4.438;2022-08-11T11:42:04;4.40;;;2.45;;
19905;SDS011;10115;50.906;4.438;2022-08-11T11:44:33;2.85;;;1.95;;
19905;SDS011;10115;50.906;4.438;2022-08-11T11:47:00;5.13;;;2.80;;
19905;SDS011;10115;50.906;4.438;2022-08-11T11:49:27;4.80;;;2.75;;
19905;SDS011;10115;50.906;4.438;2022-08-11T11:51:56;2.47;;;2.28;;
19905;SDS011;10115;50.906;4.438;2022-08-11T11:54:26;8.13;;;2.63;;
19905;SDS011;10115;50.906;4.438;2022-08-11T11:56:55;2.58;;;2.38;;
19905;SDS011;10115;50.906;4.438;2022-08-11T11:59:23;2.08;;;1.80;;
19905;SDS011;10115;50.906;4.438;2022-08-11T12:02:12;7.85;;;2.25;;
19905;SDS011;10115;50.906;4.438;2022-08-11T12:04:40;5.70;;;2.38;;
19905;SDS011;10115;50.906;4.438;2022-08-11T12:07:08;2.30;;;2.10;;
19905;SDS011;10115;50.906;4.438;2022-08-11T12:09:53;2.20;;;2.10;;
19905;SDS011;10115;50.906;4.438;2022-08-11T12:12:21;1.98;;;1.83;;
19905;SDS011;10115;50.906;4.438;2022-08-11T12:15:05;4.15;;;2.35;;
19905;SDS011;10115;50.906;4.438;2022-08-11T12:17:33;2.40;;;2.20;;
19905;SDS011;10115;50.906;4.438;2022-08-11T12:20:00;2.70;;;2.30;;
19905;SDS011;10115;50.906;4.438;2022-08-11T12:22:27;2.42;;;2.22;;
19905;SDS011;10115;50.906;4.438;2022-08-11T12:25:28;4.07;;;2.00;;
19905;SDS011;10115;50.906;4.438;2022-08-11T12:28:13;2.85;;;2.40;;
19905;SDS011;10115;50.906;4.438;2022-08-11T12:30:39;2.30;;;2.10;;
19905;SDS011;10115;50.906;4.438;2022-08-11T12:33:06;2.60;;;2.40;;
19905;SDS011;10115;50.906;4.438;2022-08-11T12:35:32;2.88;;;2.45;;
19905;SDS011;10115;50.906;4.438;2022-08-11T12:38:00;2.45;;;2.25;;
19905;SDS011;10115;50.906;4.438;2022-08-11T12:40:27;3.28;;;2.03;;
19905;SDS011;10115;50.906;4.438;2022-08-11T12:43:13;1.98;;;1.80;;
19905;SDS011;10115;50.906;4.438;2022-08-11T12:45:59;2.28;;;2.10;;
19905;SDS011;10115;50.906;4.438;2022-08-11T12:48:32;4.88;;;2.08;;
19905;SDS011;10115;50.906;4.438;2022-08-11T12:51:20;2.65;;;1.88;;
19905;SDS011;10115;50.906;4.438;2022-08-11T12:56:40;2.35;;;1.95;;
19905;SDS011;10115;50.906;4.438;2022-08-11T12:59:27;3.10;;;2.08;;
19905;SDS011;10115;50.906;4.438;2022-08-11T13:02:15;3.20;;;2.10;;
19905;SDS011;10115;50.906;4.438;2022-08-11T13:05:01;3.47;;;2.03;;
19905;SDS011;10115;50.906;4.438;2022-08-11T13:07:29;3.60;;;2.28;;
19905;SDS011;10115;50.906;4.438;2022-08-11T13:09:57;2.13;;;1.88;;
19905;SDS011;10115;50.906;4.438;2022-08-11T13:12:25;3.08;;;1.90;;
19905;SDS011;10115;50.906;4.438;2022-08-11T13:15:16;2.97;;;2.00;;
19905;SDS011;10115;50.906;4.438;2022-08-11T13:17:44;3.03;;;1.90;;
19905;SDS011;10115;50.906;4.438;2022-08-11T13:20:12;4.50;;;2.28;;
19905;SDS011;10115;50.906;4.438;2022-08-11T13:22:41;2.95;;;1.90;;
19905;SDS011;10115;50.906;4.438;2022-08-11T13:25:11;2.28;;;1.80;;
19905;SDS011;10115;50.906;4.438;2022-08-11T13:27:40;3.47;;;1.83;;
19905;SDS011;10115;50.906;4.438;2022-08-11T13:30:11;2.65;;;1.90;;
19905;SDS011;10115;50.906;4.438;2022-08-11T13:32:58;2.17;;;2.00;;
19905;SDS011;10115;50.906;4.438;2022-08-11T13:35:24;1.92;;;1.83;;
19905;SDS011;10115;50.906;4.438;2022-08-11T13:37:51;5.85;;;1.77;;
19905;SDS011;10115;50.906;4.438;2022-08-11T13:40:19;3.58;;;1.95;;
19905;SDS011;10115;50.906;4.438;2022-08-11T13:42:45;2.00;;;1.80;;
19905;SDS011;10115;50.906;4.438;2022-08-11T13:45:12;1.88;;;1.63;;
19905;SDS011;10115;50.906;4.438;2022-08-11T13:47:38;2.53;;;1.90;;
19905;SDS011;10115;50.906;4.438;2022-08-11T13:50:07;3.92;;;2.00;;
19905;SDS011;10115;50.906;4.438;2022-08-11T13:52:34;3.08;;;2.03;;
19905;SDS011;10115;50.906;4.438;2022-08-11T13:55:03;1.90;;;1.80;;
19905;SDS011;10115;50.906;4.438;2022-08-11T13:57:30;1.80;;;1.70;;
19905;SDS011;10115;50.906;4.438;2022-08-11T13:59:58;1.95;;;1.77;;
19905;SDS011;10115;50.906;4.438;2022-08-11T14:02:34;2.35;;;1.83;;
19905;SDS011;10115;50.906;4.438;2022-08-11T14:05:11;2.83;;;2.00;;
19905;SDS011;10115;50.906;4.438;2022-08-11T14:07:41;1.73;;;1.63;;
19905;SDS011;10115;50.906;4.438;2022-08-11T14:10:13;5.20;;;1.90;;
19905;SDS011;10115;50.906;4.438;2022-08-11T14:12:42;2.15;;;1.70;;
19905;SDS011;10115;50.906;4.438;2022-08-11T14:15:33;2.92;;;2.30;;
19905;SDS011;10115;50.906;4.438;2022-08-11T14:18:02;2.50;;;2.05;;
19905;SDS011;10115;50.906;4.438;2022-08-11T14:20:30;1.95;;;1.75;;
19905;SDS011;10115;50.906;4.438;2022-08-11T14:23:23;2.60;;;2.05;;
19905;SDS011;10115;50.906;4.438;2022-08-11T14:25:52;2.10;;;1.90;;
19905;SDS011;10115;50.906;4.438;2022-08-11T14:28:37;1.73;;;1.63;;
19905;SDS011;10115;50.906;4.438;2022-08-11T14:31:03;2.22;;;2.03;;
19905;SDS011;10115;50.906;4.438;2022-08-11T14:33:32;4.28;;;2.03;;
19905;SDS011;10115;50.906;4.438;2022-08-11T14:36:00;4.25;;;2.35;;
19905;SDS011;10115;50.906;4.438;2022-08-11T14:38:30;2.40;;;2.20;;
19905;SDS011;10115;50.906;4.438;2022-08-11T14:40:58;1.92;;;1.75;;
19905;SDS011;10115;50.906;4.438;2022-08-11T14:43:42;2.70;;;2.08;;
19905;SDS011;10115;50.906;4.438;2022-08-11T14:46:27;8.27;;;2.22;;
19905;SDS011;10115;50.906;4.438;2022-08-11T14:49:13;3.38;;;2.05;;
19905;SDS011;10115;50.906;4.438;2022-08-11T14:51:39;3.63;;;2.03;;
19905;SDS011;10115;50.906;4.438;2022-08-11T14:54:06;2.85;;;2.13;;
19905;SDS011;10115;50.906;4.438;2022-08-11T14:56:51;2.90;;;2.20;;
19905;SDS011;10115;50.906;4.438;2022-08-11T14:59:18;5.97;;;2.65;;
19905;SDS011;10115;50.906;4.438;2022-08-11T15:01:45;4.22;;;2.15;;
19905;SDS011;10115;50.906;4.438;2022-08-11T15:04:29;2.63;;;1.83;;
19905;SDS011;10115;50.906;4.438;2022-08-11T15:06:55;3.65;;;2.05;;
19905;SDS011;10115;50.906;4.438;2022-08-11T15:09:21;2.55;;;2.35;;
19905;SDS011;10115;50.906;4.438;2022-08-11T15:11:47;4.90;;;1.95;;
19905;SDS011;10115;50.906;4.438;2022-08-11T15:14:32;2.35;;;2.15;;
19905;SDS011;10115;50.906;4.438;2022-08-11T15:17:17;2.15;;;1.92;;
19905;SDS011;10115;50.906;4.438;2022-08-11T15:19:44;3.47;;;1.85;;
19905;SDS011;10115;50.906;4.438;2022-08-11T15:22:30;6.38;;;1.73;;
19905;SDS011;10115;50.906;4.438;2022-08-11T15:25:14;8.63;;;2.65;;
19905;SDS011;10115;50.906;4.438;2022-08-11T15:27:40;5.25;;;1.85;;
19905;SDS011;10115;50.906;4.438;2022-08-11T15:30:28;3.92;;;2.35;;
19905;SDS011;10115;50.906;4.438;2022-08-11T15:33:14;2.05;;;1.85;;
19905;SDS011;10115;50.906;4.438;2022-08-11T15:36:02;1.70;;;1.60;;
19905;SDS011;10115;50.906;4.438;2022-08-11T15:39:07;1.65;;;1.55;;
19905;SDS011;10115;50.906;4.438;2022-08-11T15:41:42;5.15;;;2.20;;
19905;SDS011;10115;50.906;4.438;2022-08-11T15:44:32;1.80;;;1.70;;
19905;SDS011;10115;50.906;4.438;2022-08-11T15:47:19;1.88;;;1.77;;
19905;SDS011;10115;50.906;4.438;2022-08-11T15:49:50;2.20;;;2.00;;
19905;SDS011;10115;50.906;4.438;2022-08-11T15:52:20;2.10;;;1.90;;
19905;SDS011;10115;50.906;4.438;2022-08-11T15:54:49;2.58;;;1.90;;
19905;SDS011;10115;50.906;4.438;2022-08-11T15:57:16;2.92;;;1.88;;
19905;SDS011;10115;50.906;4.438;2022-08-11T16:00:03;2.47;;;2.05;;
19905;SDS011;10115;50.906;4.438;2022-08-11T16:02:49;2.45;;;2.22;;
19905;SDS011;10115;50.906;4.438;2022-08-11T16:05:19;9.05;;;2.78;;
19905;SDS011;10115;50.906;4.438;2022-08-11T16:07:48;3.67;;;2.15;;
19905;SDS011;10115;50.906;4.438;2022-08-11T16:10:17;2.45;;;1.77;;
19905;SDS011;10115;50.906;4.438;2022-08-11T16:12:55;2.95;;;1.67;;
19905;SDS011;10115;50.906;4.438;2022-08-11T16:15:49;1.77;;;1.60;;
19905;SDS011;10115;50.906;4.438;2022-08-11T16:21:21;2.72;;;1.90;;
19905;SDS011;10115;50.906;4.438;2022-08-11T16:23:51;5.60;;;2.00;;
19905;SDS011;10115;50.906;4.438;2022-08-11T16:26:20;2.67;;;2.20;;
19905;SDS011;10115;50.906;4.438;2022-08-11T16:28:49;2.75;;;1.85;;
19905;SDS011;10115;50.906;4.438;2022-08-11T16:31:23;1.92;;;1.73;;
19905;SDS011;10115;50.906;4.438;2022-08-11T16:33:50;2.95;;;1.80;;
19905;SDS011;10115;50.906;4.438;2022-08-11T16:36:18;2.90;;;2.30;;
19905;SDS011;10115;50.906;4.438;2022-08-11T16:39:04;1.90;;;1.80;;
19905;SDS011;10115;50.906;4.438;2022-08-11T16:41:31;2.10;;;1.90;;
19905;SDS011;10115;50.906;4.438;2022-08-11T16:44:18;3.45;;;1.73;;
19905;SDS011;10115;50.906;4.438;2022-08-11T16:47:09;2.55;;;2.35;;
19905;SDS011;10115;50.906;4.438;2022-08-11T16:49:44;3.38;;;1.80;;
19905;SDS011;10115;50.906;4.438;2022-08-11T16:52:13;1.90;;;1.80;;
19905;SDS011;10115;50.906;4.438;2022-08-11T16:54:39;1.75;;;1.65;;
19905;SDS011;10115;50.906;4.438;2022-08-11T16:57:17;3.75;;;2.38;;
19905;SDS011;10115;50.906;4.438;2022-08-11T17:00:06;6.28;;;1.90;;
19905;SDS011;10115;50.906;4.438;2022-08-11T17:02:52;2.17;;;1.80;;
19905;SDS011;10115;50.906;4.438;2022-08-11T17:05:44;1.58;;;1.48;;
19905;SDS011;10115;50.906;4.438;2022-08-11T17:08:36;4.32;;;2.85;;
19905;SDS011;10115;50.906;4.438;2022-08-11T17:11:26;2.13;;;1.92;;
19905;SDS011;10115;50.906;4.438;2022-08-11T17:14:14;2.85;;;2.30;;
19905;SDS011;10115;50.906;4.438;2022-08-11T17:16:43;2.75;;;2.03;;
19905;SDS011;10115;50.906;4.438;2022-08-11T17:19:15;2.33;;;1.48;;
19905;SDS011;10115;50.906;4.438;2022-08-11T17:21:48;2.10;;;1.90;;
19905;SDS011;10115;50.906;4.438;2022-08-11T17:24:37;2.22;;;1.70;;
19905;SDS011;10115;50.906;4.438;2022-08-11T17:27:07;1.80;;;1.65;;
19905;SDS011;10115;50.906;4.438;2022-08-11T17:29:41;9.00;;;2.00;;
19905;SDS011;10115;50.906;4.438;2022-08-11T17:32:15;2.08;;;1.90;;
19905;SDS011;10115;50.906;4.438;2022-08-11T17:35:02;2.50;;;2.00;;
19905;SDS011;10115;50.906;4.438;2022-08-11T17:37:51;8.10;;;1.70;;
19905;SDS011;10115;50.906;4.438;2022-08-11T17:40:20;3.50;;;1.85;;
19905;SDS011;10115;50.906;4.438;2022-08-11T17:42:49;4.05;;;2.47;;
19905;SDS011;10115;50.906;4.438;2022-08-11T17:45:38;2.97;;;2.17;;
19905;SDS011;10115;50.906;4.438;2022-08-11T17:48:29;4.03;;;2.10;;
19905;SDS011;10115;50.906;4.438;2022-08-11T17:53:36;3.60;;;2.30;;
19905;SDS011;10115;50.906;4.438;2022-08-11T17:56:24;5.13;;;2.83;;
19905;SDS011;10115;50.906;4.438;2022-08-11T17:59:10;4.18;;;2.15;;
19905;SDS011;10115;50.906;4.438;2022-08-11T18:01:57;2.50;;;2.17;;
19905;SDS011;10115;50.906;4.438;2022-08-11T18:04:44;2.25;;;2.00;;
19905;SDS011;10115;50.906;4.438;2022-08-11T18:07:13;4.00;;;2.38;;
19905;SDS011;10115;50.906;4.438;2022-08-11T18:10:01;2.17;;;1.98;;
19905;SDS011;10115;50.906;4.438;2022-08-11T18:12:50;4.72;;;2.50;;
19905;SDS011;10115;50.906;4.438;2022-08-11T18:15:39;5.22;;;2.20;;
19905;SDS011;10115;50.906;4.438;2022-08-11T18:18:25;2.65;;;2.42;;
19905;SDS011;10115;50.906;4.438;2022-08-11T18:21:12;2.55;;;2.17;;
19905;SDS011;10115;50.906;4.438;2022-08-11T18:24:00;4.78;;;2.80;;
19905;SDS011;10115;50.906;4.438;2022-08-11T18:26:49;3.13;;;2.45;;
19905;SDS011;10115;50.906;4.438;2022-08-11T18:29:34;1.95;;;1.85;;
19905;SDS011;10115;50.906;4.438;2022-08-11T18:32:27;3.95;;;2.33;;
19905;SDS011;10115;50.906;4.438;2022-08-11T18:35:14;7.57;;;2.45;;
19905;SDS011;10115;50.906;4.438;2022-08-11T18:38:01;2.45;;;2.22;;
19905;SDS011;10115;50.906;4.438;2022-08-11T18:40:50;2.88;;;2.25;;
19905;SDS011;10115;50.906;4.438;2022-08-11T18:43:36;6.65;;;2.63;;
19905;SDS011;10115;50.906;4.438;2022-08-11T18:46:25;2.42;;;2.22;;
19905;SDS011;10115;50.906;4.438;2022-08-11T18:49:13;3.95;;;2.45;;
19905;SDS011;10115;50.906;4.438;2022-08-11T18:52:02;4.03;;;2.72;;
19905;SDS011;10115;50.906;4.438;2022-08-11T18:54:48;4.82;;;2.40;;
19905;SDS011;10115;50.906;4.438;2022-08-11T18:57:35;6.45;;;2.65;;
19905;SDS011;10115;50.906;4.438;2022-08-11T19:00:22;3.30;;;2.17;;
19905;SDS011;10115;50.906;4.438;2022-08-11T19:03:08;2.95;;;2.65;;
19905;SDS011;10115;50.906;4.438;2022-08-11T19:05:54;4.60;;;2.92;;
19905;SDS011;10115;50.906;4.438;2022-08-11T19:08:41;2.50;;;2.30;;
19905;SDS011;10115;50.906;4.438;2022-08-11T19:11:31;3.67;;;2.67;;
19905;SDS011;10115;50.906;4.438;2022-08-11T19:14:17;7.68;;;2.53;;
19905;SDS011;10115;50.906;4.438;2022-08-11T19:17:03;3.75;;;2.72;;
19905;SDS011;10115;50.906;4.438;2022-08-11T19:19:50;2.55;;;2.35;;
19905;SDS011;10115;50.906;4.438;2022-08-11T19:22:36;3.45;;;2.83;;
19905;SDS011;10115;50.906;4.438;2022-08-11T19:25:20;2.67;;;2.47;;
19905;SDS011;10115;50.906;4.438;2022-08-11T19:28:06;2.88;;;2.55;;
19905;SDS011;10115;50.906;4.438;2022-08-11T19:30:51;19.58;;;3.25;;
19905;SDS011;10115;50.906;4.438;2022-08-11T19:33:36;4.78;;;2.53;;
19905;SDS011;10115;50.906;4.438;2022-08-11T19:36:22;4.80;;;3.00;;
19905;SDS011;10115;50.906;4.438;2022-08-11T19:39:07;3.85;;;2.83;;
19905;SDS011;10115;50.906;4.438;2022-08-11T19:41:53;4.60;;;2.72;;